Time;durP1;ratioP1;P1;durP2;ratioP2;P2;SDS_P1;SDS_P2;PMS_P1;PMS_P2;Temp;Humidity;BMP_temperature;BMP_pressure;BME280_temperature;BME280_humidity;BME280_pressure;Samples;Min_cycle;Max_cycle;Signal;HPM_P1;HPM_P2
2023/04/05 00:01:52;;;;;;;68.50;37.00;;;;;;;-3.87;79.39;99532.97;109682;1249;59025;-73
2023/04/05 00:04:22;;;;;;;71.00;36.90;;;;;;;-3.90;79.57;99531.23;109704;1250;58983;-73
2023/04/05 00:06:53;;;;;;;;;;;;;;;-3.93;79.84;99528.29;109698;1250;66012;-73
2023/04/05 00:09:19;;;;;;;83.90;42.60;;;;;;;-3.97;79.99;99526.02;108961;1250;1002544;-73
2023/04/05 00:11:47;;;;;;;98.90;46.40;;;;;;;-4.01;80.13;99523.61;109364;1250;62911;-73
2023/04/05 00:14:14;;;;;;;99.70;48.00;;;;;;;-4.05;80.22;99520.65;109636;1250;59017;-74
2023/04/05 00:16:40;;;;;;;89.50;44.50;;;;;;;-4.08;80.42;99521.34;109704;1250;59032;-73
2023/04/05 00:19:07;;;;;;;80.80;42.80;;;;;;;-4.13;81.02;99520.12;109417;1250;64513;-73
2023/04/05 00:21:34;;;;;;;81.80;41.00;;;;;;;-4.17;82.28;99519.25;109706;1250;59465;-74
2023/04/05 00:24:00;;;;;;;78.00;40.30;;;;;;;-4.21;83.36;99519.08;109708;1249;59054;-75
2023/04/05 00:26:27;;;;;;;82.60;41.50;;;;;;;-4.26;84.22;99514.04;109410;1249;59034;-74
2023/04/05 00:28:53;;;;;;;80.60;42.50;;;;;;;-4.30;84.74;99518.01;109706;1250;59340;-74
2023/04/05 00:31:20;;;;;;;76.60;39.60;;;;;;;-4.33;85.25;99514.03;108911;1250;1003052;-74
2023/04/05 00:33:46;;;;;;;67.50;40.90;;;;;;;-4.36;85.52;99515.94;108934;1250;1002990;-74
2023/04/05 00:36:18;;;;;;;75.00;43.90;;;;;;;-4.39;85.38;99512.98;109360;1250;59533;-74
2023/04/05 00:38:46;;;;;;;77.10;42.50;;;;;;;-4.43;85.55;99510.90;109346;1256;59028;-74
2023/04/05 00:41:13;;;;;;;68.60;40.90;;;;;;;-4.46;86.02;99509.33;109726;1250;59012;-74
2023/04/05 00:43:40;;;;;;;75.80;41.80;;;;;;;-4.47;86.25;99510.54;109681;1249;66014;-74
2023/04/05 00:46:08;;;;;;;77.40;43.30;;;;;;;-4.49;86.74;99509.33;109555;1249;60544;-74
2023/04/05 00:48:35;;;;;;;71.40;41.00;;;;;;;-4.51;86.75;99507.41;109682;1250;64077;-74
2023/04/05 00:51:02;;;;;;;74.80;41.00;;;;;;;-4.54;87.19;99503.59;109454;1250;59037;-74
2023/04/05 00:53:30;;;;;;;75.10;43.00;;;;;;;-4.55;87.66;99504.63;109728;1250;58930;-74
2023/04/05 00:55:57;;;;;;;65.20;41.80;;;;;;;-4.58;87.83;99499.77;108938;1250;1002495;-74
2023/04/05 00:58:24;;;;;;;70.00;41.30;;;;;;;-4.60;88.61;99499.42;109727;1250;60106;-74
2023/04/05 01:00:53;;;;;;;66.40;41.10;;;;;;;-4.63;88.77;99497.49;109710;1250;64032;-74
2023/04/05 01:03:25;;;;;;;63.60;40.30;;;;;;;-4.66;89.05;99497.31;109749;1249;58940;-73
2023/04/05 01:06:15;;;;;;;74.70;42.30;;;;;;;-4.70;89.35;99491.77;109666;1250;59007;-74
2023/04/05 01:08:56;;;;;;;;;;;;;;;-4.74;89.65;99491.23;109697;1250;64852;-74
2023/04/05 01:11:25;;;;;;;63.40;36.30;;;;;;;-4.78;90.00;99490.17;109707;1250;60173;-74
2023/04/05 01:13:59;;;;;;;68.20;39.10;;;;;;;-4.82;90.32;99489.99;109682;1250;64097;-75
2023/04/05 01:16:26;;;;;;;67.40;40.00;;;;;;;-4.83;90.65;99491.89;109663;1249;58958;-75
2023/04/05 01:18:55;;;;;;;66.90;40.20;;;;;;;-4.85;90.77;99488.43;109701;1250;58973;-75
2023/04/05 01:21:51;;;;;;;65.10;41.10;;;;;;;-4.87;91.05;99481.48;109670;1250;64729;-74
2023/04/05 01:24:56;;;;;;;64.10;40.40;;;;;;;-4.88;91.41;99480.62;109685;1250;60110;-75
2023/04/05 01:27:47;;;;;;;57.70;38.60;;;;;;;-4.91;91.14;99476.29;108953;1259;62828;-74
2023/04/05 01:30:20;;;;;;;60.90;37.70;;;;;;;-4.92;91.05;99473.86;108902;1259;59344;-74
2023/04/05 01:33:23;;;;;;;67.20;43.40;;;;;;;-4.93;91.03;99473.16;108930;1259;59039;-74
2023/04/05 01:36:05;;;;;;;75.10;41.90;;;;;;;-4.94;92.93;99471.77;108178;1259;1003217;-73
2023/04/05 01:38:34;;;;;;;83.90;48.50;;;;;;;-4.92;94.56;99474.73;108974;1258;59158;-75
2023/04/05 01:41:00;;;;;;;81.60;49.90;;;;;;;-4.88;95.07;99476.81;108939;1259;64066;-75
2023/04/05 01:43:27;;;;;;;82.90;49.80;;;;;;;-4.86;94.38;99476.98;108956;1259;59103;-75
2023/04/05 01:45:54;;;;;;;76.60;49.40;;;;;;;-4.83;94.11;99475.26;108949;1259;59021;-75
2023/04/05 01:48:20;;;;;;;71.90;47.30;;;;;;;-4.81;94.54;99480.13;108968;1259;64868;-76
2023/04/05 01:50:47;;;;;;;67.50;44.60;;;;;;;-4.79;94.64;99479.27;108948;1259;58976;-75
2023/04/05 01:53:13;;;;;;;68.80;44.30;;;;;;;-4.76;94.69;99477.36;108944;1259;59001;-76
2023/04/05 01:55:40;;;;;;;65.60;45.20;;;;;;;-4.73;94.30;99478.23;108209;1259;1002705;-76
2023/04/05 01:58:07;;;;;;;67.10;42.00;;;;;;;-4.70;94.06;99477.71;108987;1259;59778;-76
2023/04/05 02:00:34;;;;;;;65.40;44.50;;;;;;;-4.67;94.02;99473.73;109023;1258;64864;-76
2023/04/05 02:03:00;;;;;;;66.50;41.50;;;;;;;-4.63;94.35;99473.92;108920;1259;59015;-76
2023/04/05 02:05:27;;;;;;;65.20;42.80;;;;;;;-4.61;94.23;99475.82;109635;1250;59262;-76
2023/04/05 02:07:53;;;;;;;61.20;40.20;;;;;;;-4.60;95.17;99473.23;109690;1249;58947;-76
2023/04/05 02:10:21;;;;;;;63.10;40.80;;;;;;;-4.60;95.27;99470.81;108783;1249;1002927;-76
2023/04/05 02:12:48;;;;;;;63.60;42.70;;;;;;;-4.61;95.12;99469.41;108795;1249;1002384;-76
2023/04/05 02:15:15;;;;;;;62.30;41.10;;;;;;;-4.62;95.45;99467.52;109703;1250;60273;-75
2023/04/05 02:17:44;;;;;;;61.40;38.90;;;;;;;-4.63;96.06;99469.41;109694;1249;64037;-75
2023/04/05 02:20:13;;;;;;;61.30;39.60;;;;;;;-4.64;96.22;99470.62;109684;1250;59219;-75
2023/04/05 02:22:44;;;;;;;61.60;40.70;;;;;;;-4.65;95.76;99466.46;109709;1249;58899;-75
2023/04/05 02:25:11;;;;;;;61.40;38.40;;;;;;;-4.64;95.98;99466.64;109675;1250;66013;-76
2023/04/05 02:27:38;;;;;;;63.90;40.50;;;;;;;-4.63;96.52;99468.02;109697;1249;60157;-75
2023/04/05 02:30:05;;;;;;;60.70;41.30;;;;;;;-4.63;96.81;99464.39;109698;1250;64076;-76
2023/04/05 02:32:32;;;;;;;62.10;40.30;;;;;;;-4.62;97.47;99463.00;109331;1250;59032;-73
2023/04/05 02:34:58;;;;;;;63.70;41.30;;;;;;;-4.61;98.18;99461.27;108918;1250;1002619;-73
2023/04/05 02:37:25;;;;;;;60.80;40.10;;;;;;;-4.60;98.63;99459.90;109524;1251;59131;-73
2023/04/05 02:39:52;;;;;;;63.70;40.40;;;;;;;-4.59;98.85;99461.45;109688;1250;60127;-73
2023/04/05 02:42:19;;;;;;;63.60;41.40;;;;;;;-4.62;99.22;99461.80;108926;1249;1002980;-73
2023/04/05 02:44:46;;;;;;;58.70;39.90;;;;;;;-4.66;99.58;99460.21;109662;1249;58970;-73
2023/04/05 02:47:16;;;;;;;70.70;42.80;;;;;;;-4.68;99.77;99455.19;109664;1250;59146;-73
2023/04/05 02:49:42;;;;;;;;;;;;;;;-4.71;100.00;99445.13;109695;1250;66014;-73
2023/04/05 02:52:08;;;;;;;66.80;40.90;;;;;;;-4.76;100.00;99438.71;109700;1250;58988;-73
2023/04/05 02:54:35;;;;;;;65.00;42.80;;;;;;;-4.78;100.00;99439.41;109662;1250;59826;-73
2023/04/05 02:57:02;;;;;;;67.10;44.00;;;;;;;-4.78;100.00;99439.92;109668;1249;58970;-73
2023/04/05 02:59:28;;;;;;;66.10;44.20;;;;;;;-4.76;100.00;99437.15;109721;1250;59338;-74
2023/04/05 03:01:55;;;;;;;70.90;47.50;;;;;;;-4.72;100.00;99436.98;109504;1251;59155;-73
2023/04/05 03:04:21;;;;;;;74.40;46.20;;;;;;;-4.70;100.00;99436.29;109674;1250;58947;-74
2023/04/05 03:06:51;;;;;;;70.30;46.40;;;;;;;-4.67;100.00;99433.68;108942;1250;1002059;-74
2023/04/05 03:09:17;;;;;;;76.10;48.30;;;;;;;-4.62;100.00;99434.40;109671;1249;59262;-75
2023/04/05 03:11:44;;;;;;;124.60;70.70;;;;;;;-4.59;100.00;99435.26;109666;1249;58964;-74
2023/04/05 03:14:11;;;;;;;117.70;69.10;;;;;;;-4.55;100.00;99432.67;108931;1250;1002256;-75
2023/04/05 03:16:40;;;;;;;109.50;68.00;;;;;;;-4.51;100.00;99436.48;109683;1250;59227;-75
2023/04/05 03:19:06;;;;;;;96.70;64.00;;;;;;;-4.47;100.00;99438.05;109661;1249;64464;-75
2023/04/05 03:21:33;;;;;;;95.20;62.20;;;;;;;-4.43;100.00;99438.74;109680;1250;58957;-76
2023/04/05 03:23:59;;;;;;;101.80;61.60;;;;;;;-4.37;100.00;99439.27;109694;1250;58932;-75
2023/04/05 03:26:26;;;;;;;95.60;64.50;;;;;;;-4.32;100.00;99437.88;109420;1251;59373;-74
2023/04/05 03:28:52;;;;;;;96.80;64.00;;;;;;;-4.26;100.00;99434.06;108888;1250;1002652;-75
2023/04/05 03:31:19;;;;;;;94.40;62.40;;;;;;;-4.19;100.00;99431.98;108922;1249;1002497;-74
2023/04/05 03:33:45;;;;;;;99.00;63.90;;;;;;;-4.13;100.00;99431.45;109717;1249;59015;-74
2023/04/05 03:36:15;;;;;;;91.30;61.00;;;;;;;-4.09;100.00;99435.79;109675;1249;59896;-74
2023/04/05 03:38:44;;;;;;;91.60;60.80;;;;;;;-4.06;100.00;99435.44;109664;1249;66102;-74
2023/04/05 03:41:10;;;;;;;97.70;62.80;;;;;;;-4.01;100.00;99437.70;109699;1250;60370;-74
2023/04/05 03:43:37;;;;;;;91.50;61.40;;;;;;;-3.96;100.00;99440.29;109666;1249;64019;-79
2023/04/05 03:46:03;;;;;;;102.60;70.30;;;;;;;-3.91;100.00;99441.33;109647;1249;58955;-78
2023/04/05 03:48:30;;;;;;;128.40;76.30;;;;;;;-3.87;100.00;99437.67;109688;1250;59215;-79
2023/04/05 03:50:57;;;;;;;112.40;66.90;;;;;;;-3.84;100.00;99437.67;109726;1250;59310;-78
2023/04/05 03:53:23;;;;;;;106.60;65.70;;;;;;;-3.81;100.00;99435.23;109745;1250;60437;-78
2023/04/05 03:55:52;;;;;;;90.20;57.50;;;;;;;-3.77;100.00;99435.39;109692;1249;58987;-79
2023/04/05 03:58:19;;;;;;;81.00;54.60;;;;;;;-3.75;100.00;99437.30;109663;1250;58947;-78
2023/04/05 04:00:46;;;;;;;86.20;56.20;;;;;;;-3.77;100.00;99434.35;109714;1250;60326;-78
2023/04/05 04:03:13;;;;;;;81.10;57.40;;;;;;;-3.78;100.00;99431.23;109696;1250;64849;-78
2023/04/05 04:05:40;;;;;;;81.70;56.50;;;;;;;-3.79;100.00;99429.84;108913;1250;1002351;-78
2023/04/05 04:08:06;;;;;;;84.90;55.50;;;;;;;-3.80;100.00;99427.42;109651;1249;62714;-78
2023/04/05 04:10:34;;;;;;;85.80;56.80;;;;;;;-3.83;100.00;99424.48;109632;1250;58953;-78
2023/04/05 04:13:01;;;;;;;89.00;58.30;;;;;;;-3.88;100.00;99425.35;109682;1249;59009;-78
2023/04/05 04:15:27;;;;;;;86.10;59.80;;;;;;;-3.92;100.00;99428.65;109696;1249;65866;-78
2023/04/05 04:17:54;;;;;;;96.70;62.00;;;;;;;-3.95;100.00;99432.83;109684;1250;58999;-79
2023/04/05 04:20:20;;;;;;;93.30;62.30;;;;;;;-3.98;100.00;99434.21;109670;1249;71420;-79
2023/04/05 04:22:48;;;;;;;96.00;63.20;;;;;;;-4.00;100.00;99437.52;109329;1250;59075;-79
2023/04/05 04:25:17;;;;;;;91.10;59.50;;;;;;;-4.02;100.00;99437.70;109597;1251;59021;-79
2023/04/05 04:27:45;;;;;;;91.40;59.70;;;;;;;-4.00;100.00;99441.35;108956;1249;1002303;-79
2023/04/05 04:30:14;;;;;;;99.10;62.10;;;;;;;-3.97;100.00;99441.51;109574;1249;59063;-79
2023/04/05 04:32:51;;;;;;;106.30;70.20;;;;;;;-3.93;100.00;99443.23;109656;1250;62853;-79
2023/04/05 04:35:23;;;;;;;97.90;67.70;;;;;;;-3.86;100.00;99442.53;108891;1249;1002220;-79
2023/04/05 04:37:58;;;;;;;112.20;72.50;;;;;;;-3.78;100.00;99441.29;109689;1250;59178;-79
2023/04/05 04:40:28;;;;;;;106.50;73.80;;;;;;;-3.70;100.00;99445.10;109734;1249;64891;-79
2023/04/05 04:42:57;;;;;;;;;;;;;;;-3.61;100.00;99445.44;109706;1249;60166;-79
2023/04/05 04:45:24;;;;;;;98.50;65.80;;;;;;;-3.54;100.00;99445.42;109773;1250;63888;-79
2023/04/05 04:47:52;;;;;;;98.30;65.00;;;;;;;-3.46;100.00;99445.91;109779;1250;59000;-79
2023/04/05 04:50:19;;;;;;;97.70;64.60;;;;;;;-3.39;100.00;99444.33;109692;1250;59128;-79
2023/04/05 04:52:46;;;;;;;89.50;60.60;;;;;;;-3.31;100.00;99448.47;109728;1250;66030;-80
2023/04/05 04:55:13;;;;;;;94.80;62.20;;;;;;;-3.22;100.00;99442.17;109688;1250;59172;-78
2023/04/05 04:57:41;;;;;;;91.90;60.90;;;;;;;-3.14;100.00;99439.70;109727;1249;64034;-79
2023/04/05 05:00:14;;;;;;;91.80;62.30;;;;;;;-3.06;100.00;99442.27;109861;1250;58969;-78
2023/04/05 05:02:42;;;;;;;92.20;59.60;;;;;;;-2.98;100.00;99437.55;109048;1249;1002801;-79
2023/04/05 05:05:10;;;;;;;88.80;61.30;;;;;;;-2.91;100.00;99435.08;109693;1251;66040;-77
2023/04/05 05:07:39;;;;;;;94.40;62.00;;;;;;;-2.82;100.00;99430.86;109715;1249;59081;-79
2023/04/05 05:10:06;;;;;;;96.00;62.60;;;;;;;-2.74;100.00;99427.67;109683;1251;62836;-80
2023/04/05 05:12:33;;;;;;;93.60;61.70;;;;;;;-2.67;100.00;99427.97;109323;1250;59006;-79
2023/04/05 05:15:00;;;;;;;93.80;63.40;;;;;;;-2.61;100.00;99428.09;109715;1249;58838;-79
2023/04/05 05:17:26;;;;;;;90.90;60.20;;;;;;;-2.54;100.00;99423.02;109753;1249;59642;-78
2023/04/05 05:19:54;;;;;;;95.40;62.10;;;;;;;-2.47;100.00;99425.40;109810;1249;59023;-78
2023/04/05 05:22:20;;;;;;;92.70;63.20;;;;;;;-2.39;100.00;99430.90;109727;1249;63009;-79
2023/04/05 05:24:47;;;;;;;92.20;60.60;;;;;;;-2.28;100.00;99431.69;109692;1250;59018;-80
2023/04/05 05:27:13;;;;;;;86.50;58.00;;;;;;;-2.18;100.00;99436.13;109795;1249;59113;-79
2023/04/05 05:29:40;;;;;;;85.00;57.40;;;;;;;-2.10;100.00;99435.89;109758;1250;65998;-79
2023/04/05 05:32:08;;;;;;;84.60;59.60;;;;;;;-2.03;100.00;99434.95;109699;1249;58977;-79
2023/04/05 05:34:35;;;;;;;87.70;57.90;;;;;;;-2.00;100.00;99436.67;109701;1249;62822;-78
2023/04/05 05:37:02;;;;;;;90.40;58.40;;;;;;;-1.96;100.00;99435.23;109653;1250;59227;-79
2023/04/05 05:39:28;;;;;;;76.60;53.70;;;;;;;-1.92;100.00;99435.73;109680;1250;59053;-78
2023/04/05 05:41:55;;;;;;;82.10;56.20;;;;;;;-1.86;100.00;99437.05;109714;1251;59051;-79
2023/04/05 05:44:21;;;;;;;78.30;54.20;;;;;;;-1.80;100.00;99434.73;109712;1250;59045;-79
2023/04/05 05:46:48;;;;;;;72.80;53.10;;;;;;;-1.67;100.00;99437.92;109687;1250;59051;-79
2023/04/05 05:49:16;;;;;;;71.00;52.90;;;;;;;-1.42;100.00;99436.94;109650;1249;59036;-79
2023/04/05 05:51:42;;;;;;;70.60;52.50;;;;;;;-0.76;100.00;99434.89;109690;1250;59071;-79
2023/04/05 05:54:09;;;;;;;67.00;48.90;;;;;;;-0.01;100.00;99427.45;109662;1251;59052;-79
2023/04/05 05:56:36;;;;;;;67.50;50.90;;;;;;;0.66;99.66;99423.05;109671;1250;59047;-79
2023/04/05 05:59:02;;;;;;;67.00;48.20;;;;;;;1.30;97.87;99422.77;109653;1250;72648;-79
2023/04/05 06:01:29;;;;;;;60.80;44.90;;;;;;;1.68;96.10;99428.17;109688;1253;59061;-79
2023/04/05 06:03:55;;;;;;;55.70;44.20;;;;;;;1.84;94.25;99428.33;109701;1249;59142;-79
2023/04/05 06:06:22;;;;;;;61.50;44.40;;;;;;;1.93;93.41;99431.08;109706;1253;59094;-81
2023/04/05 06:08:48;;;;;;;59.30;45.20;;;;;;;1.93;93.17;99426.52;109402;1251;59208;-81
2023/04/05 06:11:20;;;;;;;65.00;47.80;;;;;;;1.98;92.87;99424.98;109701;1250;59068;-80
2023/04/05 06:13:48;;;;;;;62.50;48.70;;;;;;;2.03;92.08;99423.63;109698;1249;59208;-80
2023/04/05 06:16:14;;;;;;;65.40;49.70;;;;;;;2.04;91.44;99423.77;109740;1250;58997;-80
2023/04/05 06:18:41;;;;;;;71.20;49.70;;;;;;;2.03;90.21;99424.15;109723;1249;66024;-79
2023/04/05 06:21:07;;;;;;;70.70;49.60;;;;;;;2.01;89.42;99426.48;109765;1250;60125;-78
2023/04/05 06:23:34;;;;;;;71.50;48.60;;;;;;;2.07;88.49;99428.98;109681;1250;63041;-79
2023/04/05 06:26:01;;;;;;;75.70;50.30;;;;;;;2.00;87.29;99430.39;109714;1250;59000;-79
2023/04/05 06:28:28;;;;;;;74.40;49.70;;;;;;;2.01;87.52;99431.23;109738;1249;59100;-79
2023/04/05 06:30:57;;;;;;;77.00;51.50;;;;;;;2.06;86.90;99427.58;109379;1256;66079;-80
2023/04/05 06:33:24;;;;;;;75.40;51.60;;;;;;;2.02;86.36;99428.04;109721;1250;58976;-79
2023/04/05 06:35:51;;;;;;;71.70;48.20;;;;;;;2.03;86.68;99426.62;109689;1250;64017;-80
2023/04/05 06:38:17;;;;;;;69.40;49.50;;;;;;;2.05;86.46;99431.99;109694;1250;59023;-79
2023/04/05 06:40:44;;;;;;;67.70;45.10;;;;;;;2.08;86.30;99431.42;109733;1249;59253;-79
2023/04/05 06:43:10;;;;;;;62.00;43.00;;;;;;;2.10;86.38;99431.52;109747;1250;59403;-80
2023/04/05 06:45:37;;;;;;;63.90;42.30;;;;;;;2.13;86.21;99431.45;109674;1250;59051;-79
2023/04/05 06:48:04;;;;;;;62.30;42.10;;;;;;;2.21;85.83;99431.27;109437;1250;64606;-80
2023/04/05 06:50:30;;;;;;;53.80;38.50;;;;;;;2.26;85.39;99429.20;109683;1250;59151;-79
2023/04/05 06:52:56;;;;;;;59.60;39.30;;;;;;;2.26;84.87;99433.73;109741;1249;58968;-79
2023/04/05 06:55:23;;;;;;;54.50;38.90;;;;;;;2.29;84.86;99435.59;109670;1251;59021;-79
2023/04/05 06:57:50;;;;;;;57.80;38.50;;;;;;;2.33;84.57;99433.02;109769;1250;58953;-79
2023/04/05 07:00:17;;;;;;;49.00;34.90;;;;;;;2.42;84.42;99434.19;109684;1250;59131;-79
2023/04/05 07:02:43;;;;;;;50.20;34.80;;;;;;;2.42;83.09;99434.38;109426;1250;59041;-79
2023/04/05 07:05:10;;;;;;;48.70;33.40;;;;;;;2.36;82.78;99432.25;109578;1250;59006;-79
2023/04/05 07:07:42;;;;;;;48.40;32.50;;;;;;;2.37;82.91;99437.31;109389;1250;66120;-79
2023/04/05 07:10:09;;;;;;;53.40;36.10;;;;;;;2.41;82.71;99438.08;109685;1251;60100;-80
2023/04/05 07:12:36;;;;;;;51.20;35.20;;;;;;;2.55;82.75;99439.83;109698;1250;64047;-80
2023/04/05 07:15:04;;;;;;;46.50;33.60;;;;;;;2.69;82.47;99437.30;109707;1249;59154;-78
2023/04/05 07:17:31;;;;;;;52.80;35.70;;;;;;;2.78;82.31;99433.56;109721;1250;59042;-79
2023/04/05 07:19:57;;;;;;;48.40;34.50;;;;;;;2.90;82.31;99434.62;109677;1250;66018;-81
2023/04/05 07:22:24;;;;;;;48.50;33.50;;;;;;;2.95;81.63;99435.89;109695;1250;58999;-80
2023/04/05 07:24:51;;;;;;;43.30;30.60;;;;;;;2.92;80.66;99434.41;109761;1249;59116;-79
2023/04/05 07:27:17;;;;;;;43.20;30.40;;;;;;;2.81;80.53;99437.33;109718;1249;59003;-79
2023/04/05 07:29:44;;;;;;;39.10;29.90;;;;;;;2.78;80.61;99435.50;109693;1251;58913;-79
2023/04/05 07:32:10;;;;;;;40.30;29.20;;;;;;;2.75;80.02;99435.42;109709;1250;67213;-79
2023/04/05 07:34:37;;;;;;;46.20;29.70;;;;;;;2.74;79.96;99436.48;109430;1250;59034;-79
2023/04/05 07:37:05;;;;;;;43.80;28.90;;;;;;;2.74;79.53;99437.71;109666;1250;58980;-79
2023/04/05 07:39:32;;;;;;;38.50;29.40;;;;;;;2.76;79.41;99436.76;109741;1251;59411;-81
2023/04/05 07:41:58;;;;;;;42.30;31.20;;;;;;;2.98;79.20;99436.14;109739;1251;58850;-79
2023/04/05 07:44:25;;;;;;;38.00;28.00;;;;;;;3.36;78.39;99437.46;109754;1250;59006;-79
2023/04/05 07:46:51;;;;;;;40.60;29.20;;;;;;;3.80;77.58;99431.86;109851;1250;60499;-79
2023/04/05 07:49:23;;;;;;;39.00;29.20;;;;;;;4.28;77.71;99427.11;109793;1250;62520;-80
2023/04/05 07:52:02;;;;;;;34.70;25.80;;;;;;;4.64;76.64;99427.11;109429;1250;59069;-80
2023/04/05 07:54:32;;;;;;;35.60;26.00;;;;;;;4.44;73.51;99426.39;109716;1250;59015;-80
2023/04/05 07:56:59;;;;;;;29.90;24.10;;;;;;;4.10;73.69;99422.63;109695;1250;66029;-79
2023/04/05 07:59:26;;;;;;;32.20;23.60;;;;;;;3.92;74.47;99423.55;109811;1250;60271;-79
2023/04/05 08:01:52;;;;;;;30.50;20.50;;;;;;;3.85;74.56;99422.95;109827;1250;62930;-79
2023/04/05 08:04:19;;;;;;;26.60;18.20;;;;;;;3.69;73.63;99423.98;109727;1251;59001;-79
2023/04/05 08:06:46;;;;;;;19.10;13.60;;;;;;;3.54;73.70;99425.15;109428;1249;59128;-79
2023/04/05 08:09:13;;;;;;;17.20;13.60;;;;;;;3.56;73.58;99425.09;109680;1250;66049;-80
2023/04/05 08:11:40;;;;;;;24.00;16.10;;;;;;;3.66;73.14;99416.17;109680;1249;59925;-79
2023/04/05 08:14:07;;;;;;;20.80;14.40;;;;;;;3.78;72.62;99418.77;109679;1250;64102;-80
2023/04/05 08:16:33;;;;;;;23.80;16.80;;;;;;;3.89;72.33;99418.94;109642;1251;59374;-80
2023/04/05 08:19:00;;;;;;;24.90;17.00;;;;;;;4.19;72.58;99417.06;109660;1250;59043;-80
2023/04/05 08:21:26;;;;;;;24.40;16.80;;;;;;;4.55;72.72;99412.77;109700;1250;59334;-79
2023/04/05 08:23:53;;;;;;;20.90;16.40;;;;;;;4.86;72.00;99409.73;109700;1250;60116;-80
2023/04/05 08:26:19;;;;;;;17.00;14.30;;;;;;;5.01;69.66;99405.14;109675;1250;62859;-80
2023/04/05 08:28:46;;;;;;;20.10;14.00;;;;;;;4.84;68.39;99405.95;109665;1250;58977;-79
2023/04/05 08:31:12;;;;;;;17.10;12.00;;;;;;;4.61;68.79;99407.67;109673;1250;59047;-79
2023/04/05 08:33:38;;;;;;;15.30;12.40;;;;;;;4.49;69.28;99406.86;109702;1250;59425;-79
2023/04/05 08:36:08;;;;;;;15.30;11.40;;;;;;;4.40;69.32;99407.73;109677;1253;58909;-79
2023/04/05 08:38:34;;;;;;;13.30;10.90;;;;;;;4.39;69.25;99406.35;109671;1250;62855;-80
2023/04/05 08:41:18;;;;;;;14.40;11.70;;;;;;;4.42;69.43;99406.75;109696;1250;58981;-80
2023/04/05 08:44:01;;;;;;;15.70;10.10;;;;;;;4.55;68.31;99403.98;109673;1251;58845;-80
2023/04/05 08:46:33;;;;;;;12.10;9.50;;;;;;;4.49;67.41;99403.70;109709;1250;66021;-80
2023/04/05 08:49:10;;;;;;;17.40;11.10;;;;;;;4.33;67.30;99408.84;109729;1250;59247;-80
2023/04/05 08:51:40;;;;;;;17.40;10.70;;;;;;;4.19;67.87;99406.30;109561;1251;64490;-80
2023/04/05 08:54:06;;;;;;;14.50;10.30;;;;;;;4.31;68.98;99407.86;109700;1251;59270;-80
2023/04/05 08:56:34;;;;;;;17.40;11.50;;;;;;;4.60;69.51;99402.41;109545;1249;58897;-80
2023/04/05 08:59:04;;;;;;;13.90;10.10;;;;;;;4.89;68.92;99399.80;109685;1251;74628;-80
2023/04/05 09:01:32;;;;;;;14.40;10.20;;;;;;;5.12;68.93;99397.85;109735;1249;60135;-80
2023/04/05 09:04:05;;;;;;;16.60;11.00;;;;;;;5.41;68.78;99396.20;109649;1251;62816;-79
2023/04/05 09:06:34;;;;;;;16.80;11.30;;;;;;;5.69;68.63;99395.07;109650;1249;59174;-80
2023/04/05 09:09:05;;;;;;;14.00;10.50;;;;;;;5.89;67.56;99390.73;109692;1250;58893;-80
2023/04/05 09:11:35;;;;;;;14.90;11.70;;;;;;;5.94;66.81;99390.55;109712;1250;65379;-80
2023/04/05 09:14:03;;;;;;;15.90;11.90;;;;;;;6.03;66.33;99388.96;109572;1251;59014;-80
2023/04/05 09:16:32;;;;;;;17.60;12.20;;;;;;;6.24;66.06;99386.31;109405;1251;62501;-80
2023/04/05 09:18:59;;;;;;;16.80;12.90;;;;;;;6.51;64.57;99384.41;109678;1250;59137;-79
2023/04/05 09:21:28;;;;;;;17.40;13.10;;;;;;;6.80;64.54;99382.06;109699;1251;58964;-80
2023/04/05 09:23:55;;;;;;;17.70;12.20;;;;;;;7.15;64.60;99379.02;109562;1251;175296;-80
2023/04/05 09:26:23;;;;;;;13.90;11.60;;;;;;;7.57;64.43;99369.78;109701;1250;59168;-80
2023/04/05 09:28:50;;;;;;;13.60;10.80;;;;;;;7.77;59.81;99366.35;109671;1249;64098;-80
2023/04/05 09:31:34;;;;;;;11.30;9.20;;;;;;;7.57;57.98;99367.67;109389;1249;59011;-80
2023/04/05 09:34:05;;;;;;;16.50;10.20;;;;;;;7.27;57.08;99369.83;109508;1249;59403;-80
2023/04/05 09:36:35;;;;;;;14.50;11.50;;;;;;;6.92;57.47;99368.08;109719;1251;64822;-80
2023/04/05 09:39:08;;;;;;;17.70;11.70;;;;;;;6.71;56.93;99369.77;109684;1250;60152;-80
2023/04/05 09:41:35;;;;;;;14.40;11.80;;;;;;;6.34;56.39;99370.52;109670;1250;72684;-79
2023/04/05 09:44:02;;;;;;;15.00;11.00;;;;;;;6.24;57.89;99366.89;109825;1250;59073;-80
2023/04/05 09:46:30;;;;;;;18.80;13.60;;;;;;;6.42;57.66;99363.45;109850;1250;59032;-80
2023/04/05 09:48:56;;;;;;;18.50;13.00;;;;;;;6.53;55.64;99363.68;109756;1250;66423;-79
2023/04/05 09:51:31;;;;;;;16.70;12.20;;;;;;;6.43;54.22;99364.46;109764;1251;59006;-79
2023/04/05 09:54:09;;;;;;;14.50;12.40;;;;;;;6.47;55.22;99358.29;109765;1251;62835;-79
2023/04/05 09:56:39;;;;;;;18.00;12.00;;;;;;;6.71;54.42;99354.71;109771;1251;59089;-80
2023/04/05 09:59:10;;;;;;;18.40;13.30;;;;;;;6.74;52.45;99351.73;109711;1250;59038;-79
2023/04/05 10:01:38;;;;;;;15.20;11.80;;;;;;;6.56;52.81;99349.95;109710;1250;65842;-79
2023/04/05 10:04:04;;;;;;;17.40;12.50;;;;;;;6.39;53.56;99350.70;109698;1251;60614;-79
2023/04/05 10:06:38;;;;;;;21.50;13.20;;;;;;;6.31;54.22;99349.10;109666;1251;64053;-79
2023/04/05 10:09:06;;;;;;;18.40;13.10;;;;;;;6.29;53.94;99349.73;109649;1250;58952;-79
2023/04/05 10:11:33;;;;;;;18.20;12.60;;;;;;;6.24;53.97;99352.07;109728;1251;58978;-80
2023/04/05 10:14:04;;;;;;;17.20;11.90;;;;;;;6.25;53.34;99353.80;109717;1251;66135;-80
2023/04/05 10:17:17;;;;;;;15.80;12.10;;;;;;;6.11;52.06;99354.72;109724;1250;60169;-80
2023/04/05 10:20:04;;;;;;;17.90;11.80;;;;;;;5.87;51.88;99354.14;108966;1258;64118;-79
2023/04/05 10:22:41;;;;;;;17.30;12.60;;;;;;;5.66;51.71;99357.48;108667;1264;59339;-79
2023/04/05 10:25:25;;;;;;;15.10;11.70;;;;;;;5.45;51.58;99357.43;108683;1263;59043;-79
2023/04/05 10:27:59;;;;;;;15.00;11.60;;;;;;;5.31;51.97;99355.36;108446;1264;66143;-79
2023/04/05 10:30:33;;;;;;;17.30;12.60;;;;;;;5.34;52.07;99351.92;108685;1264;59815;-79
2023/04/05 10:33:10;;;;;;;17.70;12.50;;;;;;;5.52;51.99;99349.95;108671;1265;62555;-79
2023/04/05 10:35:54;;;;;;;15.00;11.30;;;;;;;5.90;52.10;99345.73;108688;1263;59011;-80
2023/04/05 10:38:26;;;;;;;15.20;11.40;;;;;;;6.35;52.49;99335.87;108691;1263;59138;-80
2023/04/05 10:41:04;;;;;;;15.30;11.90;;;;;;;6.81;51.00;99329.73;108690;1264;66351;-80
2023/04/05 10:43:33;;;;;;;15.70;11.30;;;;;;;6.95;50.09;99324.31;108749;1263;59089;-80
2023/04/05 10:46:01;;;;;;;15.30;11.10;;;;;;;6.91;48.84;99320.80;108718;1266;63104;-80
2023/04/05 10:49:06;;;;;;;12.40;8.50;;;;;;;6.85;48.50;99320.23;108732;1263;59065;-79
2023/04/05 10:51:34;;;;;;;13.40;9.50;;;;;;;7.17;49.43;99316.38;108338;1270;59307;-80
2023/04/05 10:54:01;;;;;;;9.90;7.80;;;;;;;7.52;48.93;99309.02;108298;1263;66156;-80
2023/04/05 10:56:28;;;;;;;11.40;8.30;;;;;;;7.49;47.72;99309.35;108615;1264;59043;-80
2023/04/05 10:58:57;;;;;;;10.60;7.70;;;;;;;7.37;47.11;99304.46;108798;1256;64071;-81
2023/04/05 11:01:24;;;;;;;10.60;7.40;;;;;;;7.11;46.26;99311.23;109065;1256;58949;-79
2023/04/05 11:03:51;;;;;;;11.10;7.30;;;;;;;6.81;46.30;99313.33;109063;1256;59097;-79
2023/04/05 11:06:18;;;;;;;9.50;7.60;;;;;;;6.63;47.03;99316.80;109056;1257;66069;-79
2023/04/05 11:08:45;;;;;;;11.20;7.20;;;;;;;6.49;45.59;99319.88;109037;1257;59092;-78
2023/04/05 11:11:17;;;;;;;12.00;7.10;;;;;;;6.25;45.45;99316.36;109029;1257;64140;-79
2023/04/05 11:14:26;;;;;;;9.80;7.50;;;;;;;6.11;45.23;99315.76;108920;1257;59303;-79
2023/04/05 11:16:55;;;;;;;8.80;6.80;;;;;;;6.06;45.58;99312.08;109054;1257;59161;-80
2023/04/05 11:19:46;;;;;;;10.60;7.80;;;;;;;6.33;45.94;99313.55;109049;1261;66227;-80
2023/04/05 11:22:23;;;;;;;10.80;7.90;;;;;;;6.65;45.36;99311.95;109030;1257;60187;-81